VE-0047 weather

Cerro El Divorcio Heliport
Cerro El Divorcio, Monagas, Venezuela

Public forecast

Using degrees Celsius for public forecast. Weather courtesy of forecast.io.

Closest aviation weather report (METAR) to Cerro El Divorcio Heliport

Report is more than 6 hours old.

Closest report is Cumaná (Antonio José de Sucre) Airport, 28.8 nm (53.3 km) NW. Retrieved 2019/06/24 18:04 UTC (8 months ago):

SVCU 241804Z 10025KT 9999 CB/NE

Closest aviation forecast (TAF) to Cerro El Divorcio Heliport

Forecast is more than 6 hours old.

Closest forecast is Del Caribe Santiago Mariño International Airport, 50.2 nm (92.9 km) N. Retrieved 2020/02/17 18:00 UTC (6 hours ago):

TAF SVMG 172200Z 1718/1818 12004KT FEW010 TX32/18Z TN21/07Z BECMG 1718/1722 05003KT 9999 FEW016